sensor_id;sensor_type;location;lat;lon;timestamp;pressure;altitude;pressure_sealevel;temperature;humidity
54270;BME280;40181;51.560;13.000;2023-05-23T00:00:22;100240.22;;;20.03;46.61
54270;BME280;40181;51.560;13.000;2023-05-23T00:02:51;100234.41;;;19.90;46.97
54270;BME280;40181;51.560;13.000;2023-05-23T00:05:20;100235.25;;;19.90;47.24
54270;BME280;40181;51.560;13.000;2023-05-23T00:07:51;100225.25;;;19.99;47.36
54270;BME280;40181;51.560;13.000;2023-05-23T00:10:20;100229.59;;;19.71;48.33
54270;BME280;40181;51.560;13.000;2023-05-23T00:12:52;100227.16;;;19.95;47.88
54270;BME280;40181;51.560;13.000;2023-05-23T00:15:22;100226.78;;;19.76;48.52
54270;BME280;40181;51.560;13.000;2023-05-23T00:17:51;100219.84;;;19.40;49.13
54270;BME280;40181;51.560;13.000;2023-05-23T00:20:20;100211.38;;;19.57;49.15
54270;BME280;40181;51.560;13.000;2023-05-23T00:22:49;100217.03;;;19.76;49.16
54270;BME280;40181;51.560;13.000;2023-05-23T00:25:18;100222.22;;;19.81;49.06
54270;BME280;40181;51.560;13.000;2023-05-23T00:27:50;100215.94;;;19.84;48.88
54270;BME280;40181;51.560;13.000;2023-05-23T00:30:19;100214.59;;;19.69;49.46
54270;BME280;40181;51.560;13.000;2023-05-23T00:32:48;100210.38;;;19.31;50.13
54270;BME280;40181;51.560;13.000;2023-05-23T00:35:18;100201.97;;;19.45;50.18
54270;BME280;40181;51.560;13.000;2023-05-23T00:37:48;100216.66;;;19.27;50.17
54270;BME280;40181;51.560;13.000;2023-05-23T00:40:17;100202.09;;;19.41;50.41
54270;BME280;40181;51.560;13.000;2023-05-23T00:42:46;100210.09;;;19.41;50.64
54270;BME280;40181;51.560;13.000;2023-05-23T00:45:18;100213.97;;;19.29;50.66
54270;BME280;40181;51.560;13.000;2023-05-23T00:47:48;100207.16;;;19.18;51.38
54270;BME280;40181;51.560;13.000;2023-05-23T00:50:18;100202.31;;;19.33;51.26
54270;BME280;40181;51.560;13.000;2023-05-23T00:52:47;100196.59;;;18.82;52.47
54270;BME280;40181;51.560;13.000;2023-05-23T00:55:17;100212.59;;;18.80;53.30
54270;BME280;40181;51.560;13.000;2023-05-23T00:57:46;100218.44;;;18.59;53.57
54270;BME280;40181;51.560;13.000;2023-05-23T01:00:18;100212.47;;;18.50;53.96
54270;BME280;40181;51.560;13.000;2023-05-23T01:02:47;100207.69;;;18.63;54.07
54270;BME280;40181;51.560;13.000;2023-05-23T01:05:19;100205.09;;;18.62;53.94
54270;BME280;40181;51.560;13.000;2023-05-23T01:07:50;100213.06;;;18.62;54.59
54270;BME280;40181;51.560;13.000;2023-05-23T01:10:20;100216.06;;;18.83;54.03
54270;BME280;40181;51.560;13.000;2023-05-23T01:13:02;100209.75;;;18.87;54.28
54270;BME280;40181;51.560;13.000;2023-05-23T01:15:46;100214.03;;;18.58;54.83
54270;BME280;40181;51.560;13.000;2023-05-23T01:18:26;100211.94;;;18.71;54.97
54270;BME280;40181;51.560;13.000;2023-05-23T01:21:04;100205.66;;;18.38;55.58
54270;BME280;40181;51.560;13.000;2023-05-23T01:24:08;100209.06;;;18.44;55.85
54270;BME280;40181;51.560;13.000;2023-05-23T01:27:04;100216.69;;;18.21;56.05
54270;BME280;40181;51.560;13.000;2023-05-23T01:29:44;100206.59;;;18.36;56.30
54270;BME280;40181;51.560;13.000;2023-05-23T01:32:15;100211.19;;;18.65;55.80
54270;BME280;40181;51.560;13.000;2023-05-23T01:34:48;100195.19;;;18.67;56.28
54270;BME280;40181;51.560;13.000;2023-05-23T01:37:20;100206.63;;;18.71;56.50
54270;BME280;40181;51.560;13.000;2023-05-23T01:39:49;100195.53;;;18.88;56.40
54270;BME280;40181;51.560;13.000;2023-05-23T01:42:18;100194.75;;;18.84;56.81
54270;BME280;40181;51.560;13.000;2023-05-23T01:44:51;100192.91;;;18.86;57.75
54270;BME280;40181;51.560;13.000;2023-05-23T01:47:23;100200.69;;;18.94;57.43
54270;BME280;40181;51.560;13.000;2023-05-23T01:49:53;100187.69;;;18.83;58.35
54270;BME280;40181;51.560;13.000;2023-05-23T01:52:23;100181.81;;;18.70;60.16
54270;BME280;40181;51.560;13.000;2023-05-23T01:54:52;100175.72;;;18.65;61.38
54270;BME280;40181;51.560;13.000;2023-05-23T01:57:23;100175.44;;;18.41;64.01
54270;BME280;40181;51.560;13.000;2023-05-23T01:59:56;100178.22;;;18.36;68.16
54270;BME280;40181;51.560;13.000;2023-05-23T02:02:25;100163.28;;;18.31;69.29
54270;BME280;40181;51.560;13.000;2023-05-23T02:04:55;100159.34;;;18.47;69.97
54270;BME280;40181;51.560;13.000;2023-05-23T02:07:24;100158.25;;;18.20;72.26
54270;BME280;40181;51.560;13.000;2023-05-23T02:09:53;100163.84;;;18.09;73.68
54270;BME280;40181;51.560;13.000;2023-05-23T02:12:23;100166.59;;;18.41;74.35
54270;BME280;40181;51.560;13.000;2023-05-23T02:14:53;100172.97;;;17.95;77.88
54270;BME280;40181;51.560;13.000;2023-05-23T02:17:25;100160.94;;;18.18;77.28
54270;BME280;40181;51.560;13.000;2023-05-23T02:19:54;100164.47;;;17.79;79.59
54270;BME280;40181;51.560;13.000;2023-05-23T02:22:24;100158.31;;;18.17;78.85
54270;BME280;40181;51.560;13.000;2023-05-23T02:24:53;100170.91;;;18.08;80.04
54270;BME280;40181;51.560;13.000;2023-05-23T02:27:22;100170.09;;;18.43;79.24
54270;BME280;40181;51.560;13.000;2023-05-23T02:29:51;100177.94;;;18.11;81.00
54270;BME280;40181;51.560;13.000;2023-05-23T02:32:23;100182.72;;;17.96;83.17
54270;BME280;40181;51.560;13.000;2023-05-23T02:34:52;100184.72;;;17.85;85.30
54270;BME280;40181;51.560;13.000;2023-05-23T02:37:21;100190.72;;;17.54;87.14
54270;BME280;40181;51.560;13.000;2023-05-23T02:39:50;100184.50;;;17.55;89.57
54270;BME280;40181;51.560;13.000;2023-05-23T02:42:19;100177.28;;;18.01;87.74
54270;BME280;40181;51.560;13.000;2023-05-23T02:44:48;100187.91;;;18.01;88.66
54270;BME280;40181;51.560;13.000;2023-05-23T02:47:17;100182.25;;;17.36;91.50
54270;BME280;40181;51.560;13.000;2023-05-23T02:49:48;100178.22;;;17.98;90.14
54270;BME280;40181;51.560;13.000;2023-05-23T02:52:17;100180.78;;;17.20;95.04
54270;BME280;40181;51.560;13.000;2023-05-23T02:54:46;100173.25;;;17.83;92.31
54270;BME280;40181;51.560;13.000;2023-05-23T02:57:16;100166.16;;;17.83;92.32
54270;BME280;40181;51.560;13.000;2023-05-23T02:59:45;100171.50;;;17.82;92.70
54270;BME280;40181;51.560;13.000;2023-05-23T03:02:14;100168.34;;;17.66;93.01
54270;BME280;40181;51.560;13.000;2023-05-23T03:04:43;100171.94;;;17.19;94.51
54270;BME280;40181;51.560;13.000;2023-05-23T03:07:15;100160.00;;;17.42;95.01
54270;BME280;40181;51.560;13.000;2023-05-23T03:09:44;100166.50;;;17.69;92.20
54270;BME280;40181;51.560;13.000;2023-05-23T03:12:13;100168.34;;;17.23;94.67
54270;BME280;40181;51.560;13.000;2023-05-23T03:14:42;100168.75;;;17.47;94.65
54270;BME280;40181;51.560;13.000;2023-05-23T03:17:12;100178.84;;;17.30;95.69
54270;BME280;40181;51.560;13.000;2023-05-23T03:19:41;100180.25;;;17.46;93.10
54270;BME280;40181;51.560;13.000;2023-05-23T03:22:10;100182.78;;;17.08;95.58
54270;BME280;40181;51.560;13.000;2023-05-23T03:24:41;100184.91;;;16.87;96.30
54270;BME280;40181;51.560;13.000;2023-05-23T03:27:10;100188.59;;;17.27;93.97
54270;BME280;40181;51.560;13.000;2023-05-23T03:29:40;100184.00;;;17.36;92.87
54270;BME280;40181;51.560;13.000;2023-05-23T03:32:09;100190.72;;;17.54;91.56
54270;BME280;40181;51.560;13.000;2023-05-23T03:34:38;100196.19;;;17.46;91.05
54270;BME280;40181;51.560;13.000;2023-05-23T03:37:07;100190.88;;;17.02;92.40
54270;BME280;40181;51.560;13.000;2023-05-23T03:39:36;100204.03;;;17.52;89.42
54270;BME280;40181;51.560;13.000;2023-05-23T03:42:07;100195.63;;;17.30;89.14
54270;BME280;40181;51.560;13.000;2023-05-23T03:44:36;100197.81;;;17.53;87.81
54270;BME280;40181;51.560;13.000;2023-05-23T03:47:06;100193.66;;;17.40;86.63
54270;BME280;40181;51.560;13.000;2023-05-23T03:49:35;100194.47;;;17.44;86.39
54270;BME280;40181;51.560;13.000;2023-05-23T03:52:04;100190.25;;;17.33;86.67
54270;BME280;40181;51.560;13.000;2023-05-23T03:54:33;100198.81;;;17.48;85.70
54270;BME280;40181;51.560;13.000;2023-05-23T03:57:03;100201.38;;;17.52;85.51
54270;BME280;40181;51.560;13.000;2023-05-23T03:59:34;100203.75;;;17.22;85.64
54270;BME280;40181;51.560;13.000;2023-05-23T04:02:04;100215.94;;;17.33;85.70
54270;BME280;40181;51.560;13.000;2023-05-23T04:04:33;100219.22;;;16.97;86.53
54270;BME280;40181;51.560;13.000;2023-05-23T04:07:03;100219.22;;;16.97;86.96
54270;BME280;40181;51.560;13.000;2023-05-23T04:09:34;100223.16;;;16.76;87.79
54270;BME280;40181;51.560;13.000;2023-05-23T04:12:03;100226.31;;;16.96;87.82
54270;BME280;40181;51.560;13.000;2023-05-23T04:14:35;100236.00;;;17.00;87.19
54270;BME280;40181;51.560;13.000;2023-05-23T04:17:04;100238.84;;;16.88;87.19
54270;BME280;40181;51.560;13.000;2023-05-23T04:19:34;100229.97;;;16.91;86.33
54270;BME280;40181;51.560;13.000;2023-05-23T04:22:03;100227.50;;;16.80;86.44
54270;BME280;40181;51.560;13.000;2023-05-23T04:24:32;100232.53;;;16.95;86.22
54270;BME280;40181;51.560;13.000;2023-05-23T04:27:01;100232.44;;;17.01;85.97
54270;BME280;40181;51.560;13.000;2023-05-23T04:29:32;100232.56;;;16.94;86.14
54270;BME280;40181;51.560;13.000;2023-05-23T04:32:04;100232.88;;;16.77;86.33
54270;BME280;40181;51.560;13.000;2023-05-23T04:34:33;100236.63;;;16.63;87.01
54270;BME280;40181;51.560;13.000;2023-05-23T04:37:02;100227.06;;;17.06;85.68
54270;BME280;40181;51.560;13.000;2023-05-23T04:39:31;100236.69;;;16.60;86.10
54270;BME280;40181;51.560;13.000;2023-05-23T04:42:00;100235.38;;;16.84;85.86
54270;BME280;40181;51.560;13.000;2023-05-23T04:44:31;100240.84;;;16.75;86.74
54270;BME280;40181;51.560;13.000;2023-05-23T04:47:05;100246.78;;;16.90;85.82
54270;BME280;40181;51.560;13.000;2023-05-23T04:49:34;100233.38;;;16.97;85.51
54270;BME280;40181;51.560;13.000;2023-05-23T04:52:04;100233.38;;;16.97;86.39
54270;BME280;40181;51.560;13.000;2023-05-23T04:54:34;100238.28;;;16.70;87.12
54270;BME280;40181;51.560;13.000;2023-05-23T04:57:05;100233.53;;;16.90;87.06
54270;BME280;40181;51.560;13.000;2023-05-23T04:59:34;100244.91;;;16.95;86.15
54270;BME280;40181;51.560;13.000;2023-05-23T05:02:05;100237.09;;;16.89;86.49
54270;BME280;40181;51.560;13.000;2023-05-23T05:04:34;100249.72;;;16.72;86.65
54270;BME280;40181;51.560;13.000;2023-05-23T05:07:04;100235.56;;;16.73;86.74
54270;BME280;40181;51.560;13.000;2023-05-23T05:09:33;100242.50;;;16.82;86.12
54270;BME280;40181;51.560;13.000;2023-05-23T05:12:02;100246.75;;;16.91;86.18
54270;BME280;40181;51.560;13.000;2023-05-23T05:14:31;100246.75;;;16.91;85.03
54270;BME280;40181;51.560;13.000;2023-05-23T05:17:00;100239.84;;;16.81;86.39
54270;BME280;40181;51.560;13.000;2023-05-23T05:19:32;100254.91;;;16.80;85.92
54270;BME280;40181;51.560;13.000;2023-05-23T05:22:01;100248.38;;;17.00;84.54
54270;BME280;40181;51.560;13.000;2023-05-23T05:24:30;100253.09;;;16.84;85.57
54270;BME280;40181;51.560;13.000;2023-05-23T05:26:59;100255.56;;;16.93;85.44
54270;BME280;40181;51.560;13.000;2023-05-23T05:29:28;100255.06;;;16.71;85.92
54270;BME280;40181;51.560;13.000;2023-05-23T05:31:58;100257.31;;;16.94;84.94
54270;BME280;40181;51.560;13.000;2023-05-23T05:34:27;100252.41;;;16.71;86.38
54270;BME280;40181;51.560;13.000;2023-05-23T05:37:00;100250.34;;;16.89;85.59
54270;BME280;40181;51.560;13.000;2023-05-23T05:39:29;100258.91;;;16.51;87.39
54270;BME280;40181;51.560;13.000;2023-05-23T05:41:58;100262.22;;;16.64;87.24
54270;BME280;40181;51.560;13.000;2023-05-23T05:44:29;100250.84;;;16.59;87.72
54270;BME280;40181;51.560;13.000;2023-05-23T05:46:58;100261.16;;;16.76;87.00
54270;BME280;40181;51.560;13.000;2023-05-23T05:49:27;100255.69;;;16.85;87.27
54270;BME280;40181;51.560;13.000;2023-05-23T05:51:56;100260.91;;;16.90;86.73
54270;BME280;40181;51.560;13.000;2023-05-23T05:54:28;100254.78;;;16.86;87.91
54270;BME280;40181;51.560;13.000;2023-05-23T05:56:57;100258.41;;;16.84;88.00
54270;BME280;40181;51.560;13.000;2023-05-23T05:59:26;100259.31;;;16.81;88.28
54270;BME280;40181;51.560;13.000;2023-05-23T06:01:58;100270.84;;;16.79;88.71
54270;BME280;40181;51.560;13.000;2023-05-23T06:04:27;100277.16;;;16.71;89.26
54270;BME280;40181;51.560;13.000;2023-05-23T06:06:56;100257.25;;;16.97;88.25
54270;BME280;40181;51.560;13.000;2023-05-23T06:09:27;100259.53;;;17.21;87.58
54270;BME280;40181;51.560;13.000;2023-05-23T06:11:56;100269.03;;;17.33;86.73
54270;BME280;40181;51.560;13.000;2023-05-23T06:14:27;100268.03;;;17.38;86.02
54270;BME280;40181;51.560;13.000;2023-05-23T06:16:56;100267.22;;;17.33;86.57
54270;BME280;40181;51.560;13.000;2023-05-23T06:19:25;100269.66;;;17.46;85.61
54270;BME280;40181;51.560;13.000;2023-05-23T06:21:54;100270.69;;;17.38;86.39
54270;BME280;40181;51.560;13.000;2023-05-23T06:24:25;100277.19;;;17.67;84.71
54270;BME280;40181;51.560;13.000;2023-05-23T06:26:54;100258.88;;;17.96;83.31
54270;BME280;40181;51.560;13.000;2023-05-23T06:29:26;100257.69;;;18.11;83.16
54270;BME280;40181;51.560;13.000;2023-05-23T06:31:56;100261.66;;;18.32;81.26
54270;BME280;40181;51.560;13.000;2023-05-23T06:34:25;100259.78;;;18.36;79.79
54270;BME280;40181;51.560;13.000;2023-05-23T06:36:54;100269.66;;;18.31;80.14
54270;BME280;40181;51.560;13.000;2023-05-23T06:39:26;100264.56;;;18.59;79.08
54270;BME280;40181;51.560;13.000;2023-05-23T06:41:55;100262.00;;;18.89;74.96
54270;BME280;40181;51.560;13.000;2023-05-23T06:44:25;100265.47;;;18.93;74.15
54270;BME280;40181;51.560;13.000;2023-05-23T06:46:54;100275.25;;;19.27;74.03
54270;BME280;40181;51.560;13.000;2023-05-23T06:49:23;100264.28;;;19.06;74.22
54270;BME280;40181;51.560;13.000;2023-05-23T06:51:52;100275.16;;;18.97;74.35
54270;BME280;40181;51.560;13.000;2023-05-23T06:54:21;100274.38;;;19.27;72.67
54270;BME280;40181;51.560;13.000;2023-05-23T06:56:53;100283.50;;;19.18;72.69
54270;BME280;40181;51.560;13.000;2023-05-23T06:59:22;100270.50;;;19.39;72.53
54270;BME280;40181;51.560;13.000;2023-05-23T07:01:51;100282.69;;;19.14;72.95
54270;BME280;40181;51.560;13.000;2023-05-23T07:04:20;100286.19;;;19.49;72.06
54270;BME280;40181;51.560;13.000;2023-05-23T07:06:49;100278.88;;;19.56;71.06
54270;BME280;40181;51.560;13.000;2023-05-23T07:09:18;100293.75;;;19.65;70.84
54270;BME280;40181;51.560;13.000;2023-05-23T07:11:47;100293.28;;;19.49;71.28
54270;BME280;40181;51.560;13.000;2023-05-23T07:14:18;100290.44;;;19.24;73.46
54270;BME280;40181;51.560;13.000;2023-05-23T07:16:47;100293.22;;;19.52;72.82
54270;BME280;40181;51.560;13.000;2023-05-23T07:19:16;100293.78;;;19.63;73.47
54270;BME280;40181;51.560;13.000;2023-05-23T07:21:45;100286.84;;;19.25;76.22
54270;BME280;40181;51.560;13.000;2023-05-23T07:24:14;100286.94;;;19.55;74.40
54270;BME280;40181;51.560;13.000;2023-05-23T07:26:44;100287.00;;;18.84;74.78
54270;BME280;40181;51.560;13.000;2023-05-23T07:29:13;100280.81;;;19.19;74.86
54270;BME280;40181;51.560;13.000;2023-05-23T07:31:44;100289.38;;;19.31;75.04
54270;BME280;40181;51.560;13.000;2023-05-23T07:34:13;100284.16;;;19.26;73.36
54270;BME280;40181;51.560;13.000;2023-05-23T07:36:42;100290.13;;;19.36;73.59
54270;BME280;40181;51.560;13.000;2023-05-23T07:39:11;100288.75;;;19.53;73.32
54270;BME280;40181;51.560;13.000;2023-05-23T07:41:46;100298.47;;;19.22;74.29
54270;BME280;40181;51.560;13.000;2023-05-23T07:44:15;100289.28;;;19.34;74.81
54270;BME280;40181;51.560;13.000;2023-05-23T07:46:48;100292.31;;;19.53;73.76
54270;BME280;40181;51.560;13.000;2023-05-23T07:49:17;100294.81;;;19.59;72.58
54270;BME280;40181;51.560;13.000;2023-05-23T07:51:46;100295.13;;;19.47;73.57
54270;BME280;40181;51.560;13.000;2023-05-23T07:54:14;100292.75;;;19.69;72.00
54270;BME280;40181;51.560;13.000;2023-05-23T07:56:43;100305.13;;;19.70;70.64
54270;BME280;40181;51.560;13.000;2023-05-23T07:59:13;100300.13;;;19.59;70.57
54270;BME280;40181;51.560;13.000;2023-05-23T08:01:42;100310.41;;;19.73;71.60
54270;BME280;40181;51.560;13.000;2023-05-23T08:04:13;100309.50;;;19.41;73.52
54270;BME280;40181;51.560;13.000;2023-05-23T08:06:42;100318.03;;;19.54;74.48
54270;BME280;40181;51.560;13.000;2023-05-23T08:09:13;100306.59;;;19.51;74.69
54270;BME280;40181;51.560;13.000;2023-05-23T08:11:42;100313.84;;;19.45;74.29
54270;BME280;40181;51.560;13.000;2023-05-23T08:14:11;100324.53;;;19.44;76.91
54270;BME280;40181;51.560;13.000;2023-05-23T08:16:40;100315.63;;;19.45;79.59
54270;BME280;40181;51.560;13.000;2023-05-23T08:19:13;100326.19;;;19.15;81.89
54270;BME280;40181;51.560;13.000;2023-05-23T08:21:42;100332.56;;;19.09;82.54
54270;BME280;40181;51.560;13.000;2023-05-23T08:24:11;100341.94;;;19.24;81.67
54270;BME280;40181;51.560;13.000;2023-05-23T08:26:40;100335.59;;;18.92;81.85
54270;BME280;40181;51.560;13.000;2023-05-23T08:29:09;100338.03;;;19.00;81.63
54270;BME280;40181;51.560;13.000;2023-05-23T08:31:38;100342.72;;;18.53;82.15
54270;BME280;40181;51.560;13.000;2023-05-23T08:34:07;100351.16;;;18.32;82.47
54270;BME280;40181;51.560;13.000;2023-05-23T08:36:39;100347.41;;;18.00;84.00
54270;BME280;40181;51.560;13.000;2023-05-23T08:39:08;100357.69;;;18.17;81.66
54270;BME280;40181;51.560;13.000;2023-05-23T08:41:38;100366.13;;;18.37;79.36
54270;BME280;40181;51.560;13.000;2023-05-23T08:44:07;100374.47;;;18.20;79.64
54270;BME280;40181;51.560;13.000;2023-05-23T08:46:39;100349.63;;;17.76;80.16
54270;BME280;40181;51.560;13.000;2023-05-23T08:49:15;100367.59;;;18.10;79.24
54270;BME280;40181;51.560;13.000;2023-05-23T08:51:51;100372.81;;;18.15;77.94
54270;BME280;40181;51.560;13.000;2023-05-23T08:54:20;100365.56;;;18.23;76.98
54270;BME280;40181;51.560;13.000;2023-05-23T08:56:49;100367.41;;;18.19;76.81
54270;BME280;40181;51.560;13.000;2023-05-23T08:59:19;100376.25;;;17.74;77.05
54270;BME280;40181;51.560;13.000;2023-05-23T09:01:50;100384.81;;;17.89;75.98
54270;BME280;40181;51.560;13.000;2023-05-23T09:04:19;100378.63;;;17.88;75.74
54270;BME280;40181;51.560;13.000;2023-05-23T09:06:53;100388.63;;;17.75;75.52
54270;BME280;40181;51.560;13.000;2023-05-23T09:09:23;100380.88;;;18.11;74.79
54270;BME280;40181;51.560;13.000;2023-05-23T09:11:54;100381.69;;;18.15;74.78
54270;BME280;40181;51.560;13.000;2023-05-23T09:14:23;100401.94;;;18.21;74.21
54270;BME280;40181;51.560;13.000;2023-05-23T09:16:58;100394.25;;;18.07;72.67
54270;BME280;40181;51.560;13.000;2023-05-23T09:19:28;100398.28;;;18.27;72.38
54270;BME280;40181;51.560;13.000;2023-05-23T09:22:01;100401.47;;;17.98;72.42
54270;BME280;40181;51.560;13.000;2023-05-23T09:24:33;100405.81;;;18.04;71.86
54270;BME280;40181;51.560;13.000;2023-05-23T09:27:04;100400.13;;;18.23;71.63
54270;BME280;40181;51.560;13.000;2023-05-23T09:29:36;100407.72;;;17.94;73.20
54270;BME280;40181;51.560;13.000;2023-05-23T09:32:10;100416.66;;;17.92;73.54
54270;BME280;40181;51.560;13.000;2023-05-23T09:34:40;100405.88;;;17.98;73.41
54270;BME280;40181;51.560;13.000;2023-05-23T09:37:15;100408.47;;;18.04;74.09
54270;BME280;40181;51.560;13.000;2023-05-23T09:39:48;100413.56;;;18.15;74.00
54270;BME280;40181;51.560;13.000;2023-05-23T09:42:19;100410.47;;;17.91;74.46
54270;BME280;40181;51.560;13.000;2023-05-23T09:44:49;100408.38;;;18.09;73.67
54270;BME280;40181;51.560;13.000;2023-05-23T09:47:18;100417.31;;;18.49;72.38
54270;BME280;40181;51.560;13.000;2023-05-23T09:49:47;100408.09;;;18.64;72.57
54270;BME280;40181;51.560;13.000;2023-05-23T09:52:19;100417.72;;;18.70;72.99
54270;BME280;40181;51.560;13.000;2023-05-23T09:54:48;100406.91;;;18.36;72.67
54270;BME280;40181;51.560;13.000;2023-05-23T09:57:18;100413.75;;;18.48;72.46
54270;BME280;40181;51.560;13.000;2023-05-23T09:59:52;100409.22;;;18.53;73.33
54270;BME280;40181;51.560;13.000;2023-05-23T10:02:43;100409.25;;;18.52;71.44
54270;BME280;40181;51.560;13.000;2023-05-23T10:05:32;100405.53;;;18.59;70.84
54270;BME280;40181;51.560;13.000;2023-05-23T10:08:07;100417.38;;;18.46;70.75
54270;BME280;40181;51.560;13.000;2023-05-23T10:14:18;100417.41;;;18.44;70.38
54270;BME280;40181;51.560;13.000;2023-05-23T10:16:54;100405.41;;;18.65;70.27
54270;BME280;40181;51.560;13.000;2023-05-23T10:19:29;100415.06;;;18.70;70.17
54270;BME280;40181;51.560;13.000;2023-05-23T10:22:07;100400.31;;;18.55;69.90
54270;BME280;40181;51.560;13.000;2023-05-23T10:24:40;100418.88;;;18.58;70.35
54270;BME280;40181;51.560;13.000;2023-05-23T10:27:11;100411.00;;;18.53;70.13
54270;BME280;40181;51.560;13.000;2023-05-23T10:29:40;100416.31;;;18.53;70.53
54270;BME280;40181;51.560;13.000;2023-05-23T10:32:10;100424.22;;;18.14;72.18
54270;BME280;40181;51.560;13.000;2023-05-23T10:34:45;100422.44;;;18.14;72.29
54270;BME280;40181;51.560;13.000;2023-05-23T10:37:25;100409.66;;;18.32;71.88
54270;BME280;40181;51.560;13.000;2023-05-23T10:40:03;100410.94;;;18.14;72.26
54270;BME280;40181;51.560;13.000;2023-05-23T10:42:41;100404.81;;;18.52;70.50
54270;BME280;40181;51.560;13.000;2023-05-23T10:45:17;100396.31;;;18.74;70.85
54270;BME280;40181;51.560;13.000;2023-05-23T10:47:49;100403.25;;;18.83;70.45
54270;BME280;40181;51.560;13.000;2023-05-23T10:50:34;100405.50;;;19.00;68.24
54270;BME280;40181;51.560;13.000;2023-05-23T10:53:05;100406.69;;;19.25;68.96
54270;BME280;40181;51.560;13.000;2023-05-23T10:55:39;100402.00;;;18.98;67.53
54270;BME280;40181;51.560;13.000;2023-05-23T10:58:09;100407.00;;;19.14;68.41
54270;BME280;40181;51.560;13.000;2023-05-23T11:00:49;100405.63;;;19.32;66.86
54270;BME280;40181;51.560;13.000;2023-05-23T11:03:29;100405.50;;;19.37;67.86
54270;BME280;40181;51.560;13.000;2023-05-23T11:06:00;100406.25;;;19.07;67.74
54270;BME280;40181;51.560;13.000;2023-05-23T11:08:37;100400.09;;;19.03;67.17
54270;BME280;40181;51.560;13.000;2023-05-23T11:11:12;100403.19;;;19.23;66.26
54270;BME280;40181;51.560;13.000;2023-05-23T11:13:53;100406.00;;;19.16;65.28
54270;BME280;40181;51.560;13.000;2023-05-23T11:16:25;100419.88;;;19.31;64.19
54270;BME280;40181;51.560;13.000;2023-05-23T11:19:20;100419.97;;;18.88;63.64
54270;BME280;40181;51.560;13.000;2023-05-23T11:21:52;100411.66;;;19.04;64.29
54270;BME280;40181;51.560;13.000;2023-05-23T11:24:22;100407.34;;;18.97;64.98
54270;BME280;40181;51.560;13.000;2023-05-23T11:26:57;100422.03;;;19.15;65.34
54270;BME280;40181;51.560;13.000;2023-05-23T11:29:28;100411.41;;;19.13;65.01
54270;BME280;40181;51.560;13.000;2023-05-23T11:31:57;100404.78;;;19.31;65.08
54270;BME280;40181;51.560;13.000;2023-05-23T11:34:27;100410.03;;;19.33;64.99
54270;BME280;40181;51.560;13.000;2023-05-23T11:36:59;100420.25;;;19.15;65.50
54270;BME280;40181;51.560;13.000;2023-05-23T11:39:28;100412.81;;;19.28;64.81
54270;BME280;40181;51.560;13.000;2023-05-23T11:42:02;100402.91;;;19.68;64.43
54270;BME280;40181;51.560;13.000;2023-05-23T11:44:32;100406.19;;;19.45;63.99
54270;BME280;40181;51.560;13.000;2023-05-23T11:47:02;100412.75;;;19.66;64.02
54270;BME280;40181;51.560;13.000;2023-05-23T11:49:34;100406.06;;;19.49;65.31
54270;BME280;40181;51.560;13.000;2023-05-23T11:52:05;100422.19;;;19.45;64.46
54270;BME280;40181;51.560;13.000;2023-05-23T11:54:34;100427.84;;;19.32;63.56
54270;BME280;40181;51.560;13.000;2023-05-23T11:57:06;100409.00;;;19.04;63.63
54270;BME280;40181;51.560;13.000;2023-05-23T11:59:36;100424.66;;;19.16;64.06
54270;BME280;40181;51.560;13.000;2023-05-23T12:02:07;100432.13;;;18.99;64.85
54270;BME280;40181;51.560;13.000;2023-05-23T12:04:36;100432.25;;;18.94;66.29
54270;BME280;40181;51.560;13.000;2023-05-23T12:07:05;100432.22;;;18.96;67.71
54270;BME280;40181;51.560;13.000;2023-05-23T12:09:41;100427.63;;;18.63;69.87
54270;BME280;40181;51.560;13.000;2023-05-23T12:12:13;100436.53;;;19.03;69.26
54270;BME280;40181;51.560;13.000;2023-05-23T12:14:44;100434.56;;;18.70;70.31
54270;BME280;40181;51.560;13.000;2023-05-23T12:17:13;100429.53;;;18.97;69.74
54270;BME280;40181;51.560;13.000;2023-05-23T12:19:44;100434.78;;;19.02;68.74
54270;BME280;40181;51.560;13.000;2023-05-23T12:22:13;100439.41;;;18.90;68.96
54270;BME280;40181;51.560;13.000;2023-05-23T12:24:45;100443.22;;;18.80;70.80
54270;BME280;40181;51.560;13.000;2023-05-23T12:27:17;100435.97;;;18.87;69.84
54270;BME280;40181;51.560;13.000;2023-05-23T12:29:50;100447.31;;;18.95;70.62
54270;BME280;40181;51.560;13.000;2023-05-23T12:32:23;100436.84;;;18.48;72.73
54270;BME280;40181;51.560;13.000;2023-05-23T12:34:52;100455.78;;;18.31;74.78
54270;BME280;40181;51.560;13.000;2023-05-23T12:37:21;100449.34;;;18.41;74.50
54270;BME280;40181;51.560;13.000;2023-05-23T12:39:51;100450.38;;;18.35;75.79
54270;BME280;40181;51.560;13.000;2023-05-23T12:42:22;100452.41;;;18.22;77.35
54270;BME280;40181;51.560;13.000;2023-05-23T12:44:52;100456.50;;;18.39;77.67
54270;BME280;40181;51.560;13.000;2023-05-23T12:47:21;100459.44;;;18.25;77.11
54270;BME280;40181;51.560;13.000;2023-05-23T12:49:50;100465.78;;;18.19;78.13
54270;BME280;40181;51.560;13.000;2023-05-23T12:52:19;100467.84;;;18.00;78.64
54270;BME280;40181;51.560;13.000;2023-05-23T12:54:48;100469.25;;;18.21;78.19
54270;BME280;40181;51.560;13.000;2023-05-23T12:57:18;100468.84;;;17.94;79.83
54270;BME280;40181;51.560;13.000;2023-05-23T12:59:49;100474.56;;;17.74;80.67
54270;BME280;40181;51.560;13.000;2023-05-23T13:02:18;100477.56;;;17.52;83.98